Terminal Aerodrome Forecast
Issued by NWS

Home | Current Version | Previous Version | Text Only | Print | Product List | Glossary On
Versions: 1 2 3 4 5 6 7 8 9 10 11 12 13 14 15 16
131
FTUS42 KFFC 081127
TAFPDK
TAF
KPDK 081127Z 0812/0912 25003KT P6SM SCT045 BKN120
     FM081600 26007KT P6SM BKN045
     FM081800 27012G22KT P6SM SCT035 BKN050
      TEMPO 0818/0822 6SM -SHRA BKN035
     FM090000 30010G20KT P6SM OVC025 PROB30 0900/0906 6SM -SHSN
      BKN015=

USA.gov is the U.S. government's official web portal to all federal, state and local government web resources and services.